Time;durP1;ratioP1;P1;durP2;ratioP2;P2;SDS_P1;SDS_P2;PMS_P1;PMS_P2;Temp;Humidity;BMP_temperature;BMP_pressure;BME280_temperature;BME280_humidity;BME280_pressure;Samples;Min_cycle;Max_cycle;Signal;HPM_P1;HPM_P2
2023/02/10 00:02:32;;;;;;;21.30;7.53;;;;;;;;;;10430828;28;20052;-79
2023/02/10 00:07:36;;;;;;;15.77;5.13;;;;;;;;;;10431000;28;20084;-79
2023/02/10 00:12:39;;;;;;;22.25;6.97;;;;;;;;;;10436882;28;20465;-79
2023/02/10 00:17:41;;;;;;;25.27;7.43;;;;;;;;;;10413582;28;20168;-78
2023/02/10 00:22:45;;;;;;;10.70;3.70;;;;;;;;;;10429626;28;20472;-79
2023/02/10 00:27:48;;;;;;;16.40;6.13;;;;;;;;;;10423388;28;20049;-79
2023/02/10 00:32:50;;;;;;;20.57;7.00;;;;;;;;;;10425582;28;20030;-79
2023/02/10 00:37:54;;;;;;;22.63;7.83;;;;;;;;;;10429732;28;20049;-79
2023/02/10 00:42:57;;;;;;;25.10;8.48;;;;;;;;;;10438514;28;21682;-79
2023/02/10 00:47:59;;;;;;;15.23;4.97;;;;;;;;;;10433080;28;20053;-79
2023/02/10 00:53:03;;;;;;;16.13;6.20;;;;;;;;;;10430763;28;20092;-79
2023/02/10 00:58:06;;;;;;;8.07;3.22;;;;;;;;;;10433432;28;20045;-79
2023/02/10 01:03:09;;;;;;;24.50;7.60;;;;;;;;;;10427688;28;20034;-79
2023/02/10 01:08:13;;;;;;;19.10;5.67;;;;;;;;;;10427866;28;20045;-80
2023/02/10 01:13:16;;;;;;;;;;;;;;;;;;10429909;28;20071;-79
2023/02/10 01:18:18;;;;;;;15.00;4.40;;;;;;;;;;10435514;28;20015;-80
2023/02/10 01:23:22;;;;;;;13.33;3.27;;;;;;;;;;10431779;28;20074;-79
2023/02/10 01:28:25;;;;;;;11.52;4.25;;;;;;;;;;10427758;28;20049;-79
2023/02/10 01:33:27;;;;;;;19.97;6.67;;;;;;;;;;10436501;28;20041;-79
2023/02/10 01:38:31;;;;;;;6.40;2.50;;;;;;;;;;10430183;28;20124;-79
2023/02/10 01:43:51;;;;;;;11.23;4.40;;;;;;;;;;10409305;28;20065;-79
2023/02/10 01:48:55;;;;;;;9.13;3.87;;;;;;;;;;10437282;28;20103;-79
2023/02/10 01:53:59;;;;;;;10.32;4.05;;;;;;;;;;10441868;28;20044;-79
2023/02/10 01:59:02;;;;;;;;;;;;;;;;;;10452676;28;20100;-80
2023/02/10 02:04:04;;;;;;;6.70;2.63;;;;;;;;;;10441424;28;20357;-79
2023/02/10 02:09:09;;;;;;;5.77;2.80;;;;;;;;;;10440505;28;20044;-79
2023/02/10 02:14:17;;;;;;;19.07;6.57;;;;;;;;;;10438647;28;20055;-77
2023/02/10 02:19:38;;;;;;;20.03;6.97;;;;;;;;;;10441310;28;20132;-79
2023/02/10 02:24:55;;;;;;;13.27;5.60;;;;;;;;;;10434142;28;20579;-80
2023/02/10 02:30:08;;;;;;;24.80;8.50;;;;;;;;;;10426713;28;20041;-79
2023/02/10 02:35:14;;;;;;;16.53;5.17;;;;;;;;;;10431368;28;20486;-79
2023/02/10 02:40:18;;;;;;;11.00;3.97;;;;;;;;;;10437027;28;20488;-79
2023/02/10 02:45:22;;;;;;;16.37;5.03;;;;;;;;;;10431003;28;20147;-80
2023/02/10 02:50:27;;;;;;;15.60;4.15;;;;;;;;;;10436941;28;20533;-78
2023/02/10 02:55:35;;;;;;;15.10;5.33;;;;;;;;;;10434828;28;20106;-79
2023/02/10 03:00:39;;;;;;;8.53;3.40;;;;;;;;;;10452539;28;20744;-78
2023/02/10 03:05:43;;;;;;;9.48;2.75;;;;;;;;;;10436738;28;20037;-79
2023/02/10 03:10:45;;;;;;;10.93;3.95;;;;;;;;;;10432025;28;20065;-80
2023/02/10 03:15:48;;;;;;;11.57;4.60;;;;;;;;;;10436040;28;20087;-80
2023/02/10 03:20:53;;;;;;;15.35;5.50;;;;;;;;;;10444287;28;20059;-80
2023/02/10 03:25:57;;;;;;;9.57;4.82;;;;;;;;;;10451097;28;20565;-79
2023/02/10 03:31:02;;;;;;;14.10;4.67;;;;;;;;;;10436746;28;20036;-79
2023/02/10 03:36:07;;;;;;;21.80;7.07;;;;;;;;;;10441164;28;20080;-80
2023/02/10 03:41:09;;;;;;;18.73;5.28;;;;;;;;;;10438061;28;20075;-79
2023/02/10 03:46:12;;;;;;;4.50;1.77;;;;;;;;;;10416212;28;20052;-79
2023/02/10 03:51:16;;;;;;;20.43;6.33;;;;;;;;;;10438715;28;20045;-79
2023/02/10 03:56:19;;;;;;;12.05;4.45;;;;;;;;;;10439547;28;20379;-79
2023/02/10 04:01:21;;;;;;;13.27;4.23;;;;;;;;;;10435768;28;20041;-78
2023/02/10 04:06:26;;;;;;;5.90;2.60;;;;;;;;;;10440330;28;20308;-79
2023/02/10 04:11:28;;;;;;;9.82;3.97;;;;;;;;;;10439187;28;20595;-79
2023/02/10 04:16:31;;;;;;;20.13;7.90;;;;;;;;;;10439803;28;20499;-79
2023/02/10 04:21:35;;;;;;;9.67;4.03;;;;;;;;;;10419779;28;20533;-79
2023/02/10 04:26:38;;;;;;;9.60;3.88;;;;;;;;;;10438081;28;20316;-79
2023/02/10 04:31:40;;;;;;;6.77;2.93;;;;;;;;;;10433081;28;20045;-79
2023/02/10 04:36:45;;;;;;;16.97;6.77;;;;;;;;;;10433907;28;20072;-79
2023/02/10 04:41:47;;;;;;;25.48;6.93;;;;;;;;;;10439510;28;20682;-79
2023/02/10 04:46:50;;;;;;;18.07;6.37;;;;;;;;;;10436025;28;20376;-79
2023/02/10 04:51:55;;;;;;;15.90;6.90;;;;;;;;;;10420200;28;20098;-79
2023/02/10 04:56:58;;;;;;;13.47;5.10;;;;;;;;;;10435676;28;20299;-79
2023/02/10 05:02:02;;;;;;;11.63;3.67;;;;;;;;;;10429317;28;20060;-78
2023/02/10 05:07:07;;;;;;;16.63;6.03;;;;;;;;;;10435284;28;20129;-78
2023/02/10 05:12:09;;;;;;;10.50;4.32;;;;;;;;;;10440818;28;20041;-79
2023/02/10 05:17:12;;;;;;;10.20;4.20;;;;;;;;;;10437620;28;20041;-79
2023/02/10 05:22:16;;;;;;;15.77;5.50;;;;;;;;;;10433810;28;20045;-80
2023/02/10 05:27:19;;;;;;;10.35;3.63;;;;;;;;;;10438139;28;20290;-80
2023/02/10 05:32:21;;;;;;;13.60;4.93;;;;;;;;;;10432158;28;20037;-80
2023/02/10 05:37:26;;;;;;;10.70;4.33;;;;;;;;;;10441143;28;20041;-80
2023/02/10 05:42:28;;;;;;;4.20;2.72;;;;;;;;;;10432876;28;20099;-79
2023/02/10 05:47:31;;;;;;;10.17;4.40;;;;;;;;;;10434340;28;20110;-78
2023/02/10 05:52:35;;;;;;;14.10;5.37;;;;;;;;;;10438835;28;20585;-80
2023/02/10 05:57:37;;;;;;;;;;;;;;;;;;10434579;28;20045;-79
2023/02/10 06:02:40;;;;;;;16.53;6.10;;;;;;;;;;10440631;28;20390;-79
2023/02/10 06:07:44;;;;;;;19.80;6.20;;;;;;;;;;10441189;28;20044;-79
2023/02/10 06:12:47;;;;;;;9.73;3.47;;;;;;;;;;10422543;28;20814;-79
2023/02/10 06:17:49;;;;;;;20.17;5.97;;;;;;;;;;10439272;28;20648;-79
2023/02/10 06:22:53;;;;;;;17.37;6.03;;;;;;;;;;10425028;28;20045;-79
2023/02/10 06:27:56;;;;;;;17.70;5.70;;;;;;;;;;10439902;28;20358;-80
2023/02/10 06:32:59;;;;;;;6.77;3.10;;;;;;;;;;10428122;28;20041;-79
2023/02/10 06:38:03;;;;;;;3.50;1.40;;;;;;;;;;10432171;28;20045;-80
2023/02/10 06:43:06;;;;;;;7.53;2.95;;;;;;;;;;10435053;28;20606;-80
2023/02/10 06:48:08;;;;;;;5.97;2.67;;;;;;;;;;10437803;28;20232;-79
2023/02/10 06:53:12;;;;;;;12.43;4.07;;;;;;;;;;10438348;28;20137;-79
2023/02/10 06:58:15;;;;;;;10.70;4.28;;;;;;;;;;10434483;28;20399;-79
2023/02/10 07:03:18;;;;;;;9.70;4.27;;;;;;;;;;10439189;28;20052;-81
2023/02/10 07:08:22;;;;;;;19.70;8.67;;;;;;;;;;10431278;28;20262;-80
2023/02/10 07:13:24;;;;;;;9.73;4.60;;;;;;;;;;10440802;28;20037;-79
2023/02/10 07:18:29;;;;;;;18.43;9.07;;;;;;;;;;10435704;28;20056;-80
2023/02/10 07:23:33;;;;;;;8.77;4.30;;;;;;;;;;10430370;28;20036;-80
2023/02/10 07:28:39;;;;;;;21.83;7.80;;;;;;;;;;10433358;28;20093;-80
2023/02/10 07:33:42;;;;;;;17.63;6.22;;;;;;;;;;10431317;28;20037;-80
2023/02/10 07:38:46;;;;;;;14.18;5.35;;;;;;;;;;10416126;28;20102;-79
2023/02/10 07:43:49;;;;;;;17.00;6.63;;;;;;;;;;10436244;28;20071;-79
2023/02/10 07:48:51;;;;;;;10.23;4.18;;;;;;;;;;10430222;28;20049;-79
2023/02/10 07:53:55;;;;;;;14.18;5.93;;;;;;;;;;10432874;28;20044;-80
2023/02/10 07:58:58;;;;;;;16.55;6.40;;;;;;;;;;10435880;28;20057;-79
2023/02/10 08:04:01;;;;;;;15.70;6.90;;;;;;;;;;10437787;28;20073;-79
2023/02/10 08:09:05;;;;;;;14.13;5.60;;;;;;;;;;10437202;28;20109;-81
2023/02/10 08:14:08;;;;;;;;;;;;;;;;;;10438307;28;20040;-80
2023/02/10 08:19:10;;;;;;;12.57;4.63;;;;;;;;;;10427622;28;19972;-81
2023/02/10 08:24:14;;;;;;;19.67;7.80;;;;;;;;;;10440569;28;20090;-80
2023/02/10 08:29:17;;;;;;;14.52;7.03;;;;;;;;;;10436892;28;20049;-79
2023/02/10 08:34:20;;;;;;;17.45;7.70;;;;;;;;;;10437957;28;20509;-80
2023/02/10 08:39:24;;;;;;;15.63;8.20;;;;;;;;;;10424252;28;20056;-80
2023/02/10 08:44:29;;;;;;;14.65;7.55;;;;;;;;;;10427481;28;20044;-81
2023/02/10 08:49:31;;;;;;;16.67;6.53;;;;;;;;;;10429152;28;20043;-80
2023/02/10 08:54:36;;;;;;;17.95;8.38;;;;;;;;;;10435212;28;20037;-80
2023/02/10 08:59:38;;;;;;;16.08;7.60;;;;;;;;;;10430975;28;20437;-81
2023/02/10 09:04:41;;;;;;;18.23;9.57;;;;;;;;;;10435464;28;20037;-81
2023/02/10 09:09:45;;;;;;;20.00;10.05;;;;;;;;;;10434611;28;20049;-81
2023/02/10 09:14:48;;;;;;;20.50;9.50;;;;;;;;;;10434902;28;20045;-81
2023/02/10 09:19:50;;;;;;;18.33;9.93;;;;;;;;;;10433286;28;20048;-80
2023/02/10 09:24:54;;;;;;;18.67;9.00;;;;;;;;;;10428279;28;20326;-80
2023/02/10 09:29:57;;;;;;;24.48;12.65;;;;;;;;;;10430748;28;20045;-81
2023/02/10 09:35:00;;;;;;;24.33;12.85;;;;;;;;;;10413587;28;20033;-80
2023/02/10 09:40:04;;;;;;;24.38;12.45;;;;;;;;;;10426839;28;20045;-80
2023/02/10 09:45:10;;;;;;;23.30;12.45;;;;;;;;;;10429405;28;20068;-80
2023/02/10 09:50:31;;;;;;;28.30;15.38;;;;;;;;;;10430824;28;20049;-81
2023/02/10 09:55:36;;;;;;;27.05;14.70;;;;;;;;;;10422394;28;20049;-81
2023/02/10 10:00:40;;;;;;;26.27;14.05;;;;;;;;;;10431059;28;20049;-81
2023/02/10 10:05:47;;;;;;;27.92;13.45;;;;;;;;;;10433342;28;20045;-81
2023/02/10 10:10:52;;;;;;;27.58;16.55;;;;;;;;;;10439148;28;20049;-80
2023/02/10 10:16:04;;;;;;;29.80;16.63;;;;;;;;;;10421671;28;20624;-80
2023/02/10 10:21:11;;;;;;;31.60;16.77;;;;;;;;;;10415093;28;20369;-80
2023/02/10 10:26:24;;;;;;;27.05;15.18;;;;;;;;;;10441989;28;20071;-80
2023/02/10 10:31:38;;;;;;;30.15;18.15;;;;;;;;;;10438766;28;20037;-81
2023/02/10 10:36:44;;;;;;;31.63;18.20;;;;;;;;;;10446102;28;20045;-81
2023/02/10 10:41:48;;;;;;;31.80;18.60;;;;;;;;;;10434505;28;20129;-81
2023/02/10 10:46:53;;;;;;;29.42;17.05;;;;;;;;;;10436871;28;20072;-81
2023/02/10 10:51:56;;;;;;;29.17;17.35;;;;;;;;;;10435461;28;20072;-81
2023/02/10 10:57:02;;;;;;;29.42;18.42;;;;;;;;;;10428964;28;20044;-81
2023/02/10 11:02:11;;;;;;;38.50;18.83;;;;;;;;;;10439503;28;20120;-81
2023/02/10 11:07:19;;;;;;;31.67;18.70;;;;;;;;;;10440798;28;20120;-81
2023/02/10 11:12:26;;;;;;;29.48;17.95;;;;;;;;;;10437184;28;20190;-80
2023/02/10 11:17:32;;;;;;;30.77;17.33;;;;;;;;;;10423934;28;20271;-81
2023/02/10 11:22:38;;;;;;;31.17;18.25;;;;;;;;;;10436504;28;20056;-81
2023/02/10 11:27:51;;;;;;;28.95;17.48;;;;;;;;;;10439582;28;20052;-81
2023/02/10 11:32:53;;;;;;;27.02;16.98;;;;;;;;;;10441031;28;20055;-80
2023/02/10 11:37:56;;;;;;;;;;;;;;;;;;10447999;28;20064;-82
2023/02/10 11:43:01;;;;;;;28.30;16.47;;;;;;;;;;10438927;28;19920;-80
2023/02/10 11:48:05;;;;;;;22.40;15.20;;;;;;;;;;10434523;28;20408;-81
2023/02/10 11:53:12;;;;;;;29.13;16.90;;;;;;;;;;10441375;28;20136;-81
2023/02/10 12:03:56;;;;;;;24.98;15.98;;;;;;;;;;10412411;28;20106;-82
2023/02/10 12:09:02;;;;;;;24.98;15.70;;;;;;;;;;10433705;28;20438;-82
2023/02/10 12:14:14;;;;;;;24.00;14.85;;;;;;;;;;10438602;28;20486;-81
2023/02/10 12:19:22;;;;;;;22.33;13.75;;;;;;;;;;10431829;28;20049;-81
2023/02/10 12:24:40;;;;;;;22.05;13.68;;;;;;;;;;10437401;28;20478;-81
2023/02/10 12:29:49;;;;;;;26.30;14.40;;;;;;;;;;10428965;28;20418;-81
2023/02/10 12:35:02;;;;;;;22.05;13.52;;;;;;;;;;10434973;28;20127;-82
2023/02/10 12:40:23;;;;;;;23.55;13.95;;;;;;;;;;10431793;28;20115;-81
2023/02/10 12:45:30;;;;;;;21.65;12.13;;;;;;;;;;10436238;28;20041;-82
2023/02/10 12:50:48;;;;;;;24.35;13.60;;;;;;;;;;10436627;28;20045;-81
2023/02/10 12:55:55;;;;;;;23.63;13.48;;;;;;;;;;10428302;28;20037;-82
2023/02/10 13:01:06;;;;;;;22.63;12.52;;;;;;;;;;10432769;28;20514;-81
2023/02/10 13:06:18;;;;;;;20.40;12.80;;;;;;;;;;10408383;28;20033;-82
2023/02/10 13:11:24;;;;;;;19.70;11.95;;;;;;;;;;10434832;28;20124;-82
2023/02/10 13:16:30;;;;;;;23.75;12.65;;;;;;;;;;10414936;28;20180;-81
2023/02/10 13:21:36;;;;;;;22.33;13.00;;;;;;;;;;10435927;28;20060;-82
2023/02/10 13:26:51;;;;;;;22.27;12.07;;;;;;;;;;10436935;28;20033;-81
2023/02/10 13:32:05;;;;;;;22.40;11.93;;;;;;;;;;10438116;28;20558;-82
2023/02/10 13:37:11;;;;;;;20.48;11.13;;;;;;;;;;10431138;28;20037;-81
2023/02/10 13:42:18;;;;;;;21.90;11.32;;;;;;;;;;10433291;28;20131;-82
2023/02/10 13:47:28;;;;;;;25.52;13.32;;;;;;;;;;10443329;28;20030;-81
2023/02/10 13:52:34;;;;;;;25.90;11.88;;;;;;;;;;10450436;28;20132;-81
2023/02/10 13:57:38;;;;;;;24.08;12.13;;;;;;;;;;10415316;28;20418;-81
2023/02/10 14:02:43;;;;;;;26.20;12.20;;;;;;;;;;10439938;28;20395;-81
2023/02/10 14:07:45;;;;;;;25.65;12.25;;;;;;;;;;10434346;28;20374;-82
2023/02/10 14:12:55;;;;;;;22.75;11.02;;;;;;;;;;10441781;28;20041;-82
2023/02/10 14:18:00;;;;;;;22.98;10.00;;;;;;;;;;10436710;28;20482;-82
2023/02/10 14:23:04;;;;;;;22.70;11.25;;;;;;;;;;10441449;28;20571;-81
2023/02/10 14:28:18;;;;;;;24.33;12.02;;;;;;;;;;10441147;28;20034;-81
2023/02/10 14:33:26;;;;;;;27.52;11.93;;;;;;;;;;10441619;28;20099;-81
2023/02/10 14:38:29;;;;;;;23.10;11.35;;;;;;;;;;10440215;28;20040;-80
2023/02/10 14:43:32;;;;;;;;;;;;;;;;;;10444142;28;20049;-80
2023/02/10 14:48:37;;;;;;;25.08;12.05;;;;;;;;;;10439922;28;19924;-81
2023/02/10 14:53:40;;;;;;;26.58;11.10;;;;;;;;;;10443519;28;20037;-82
2023/02/10 14:58:43;;;;;;;;;;;;;;;;;;10436168;28;20126;-80
2023/02/10 15:03:48;;;;;;;24.95;10.70;;;;;;;;;;10435043;28;19929;-80
2023/02/10 15:08:59;;;;;;;25.88;11.13;;;;;;;;;;10437180;28;20124;-80
2023/02/10 15:14:02;;;;;;;26.27;11.38;;;;;;;;;;10421617;28;20043;-80
2023/02/10 15:19:06;;;;;;;28.48;11.93;;;;;;;;;;10417683;28;20084;-81
2023/02/10 15:24:18;;;;;;;29.50;11.82;;;;;;;;;;10432771;28;20120;-81
2023/02/10 15:29:21;;;;;;;28.52;11.70;;;;;;;;;;10438919;28;20036;-80
2023/02/10 15:34:26;;;;;;;31.90;10.95;;;;;;;;;;10432065;28;20111;-80
2023/02/10 15:39:30;;;;;;;28.58;11.35;;;;;;;;;;10439877;28;20064;-80
2023/02/10 15:44:36;;;;;;;30.40;10.98;;;;;;;;;;10441852;28;20037;-80
2023/02/10 15:49:40;;;;;;;26.75;11.00;;;;;;;;;;10436983;28;20072;-81
2023/02/10 15:54:43;;;;;;;32.85;10.75;;;;;;;;;;10436290;28;20099;-79
2023/02/10 15:59:48;;;;;;;29.58;11.57;;;;;;;;;;10437669;28;20051;-80
2023/02/10 16:04:52;;;;;;;31.95;11.52;;;;;;;;;;10436295;28;20106;-79
2023/02/10 16:09:55;;;;;;;;;;;;;;;;;;10446632;28;20116;-79
2023/02/10 16:14:58;;;;;;;29.45;11.05;;;;;;;;;;10431678;28;19928;-81
2023/02/10 16:20:03;;;;;;;26.57;10.50;;;;;;;;;;10418323;28;20033;-79
2023/02/10 16:25:06;;;;;;;31.17;11.25;;;;;;;;;;10433777;28;20410;-80
2023/02/10 16:30:14;;;;;;;27.65;10.35;;;;;;;;;;10435318;28;20517;-80
2023/02/10 16:35:18;;;;;;;25.85;10.50;;;;;;;;;;10430012;28;20053;-80
2023/02/10 16:40:23;;;;;;;31.55;11.25;;;;;;;;;;10413170;28;20037;-80
2023/02/10 16:45:27;;;;;;;27.08;10.52;;;;;;;;;;10436199;28;20041;-80
2023/02/10 16:50:32;;;;;;;33.50;12.25;;;;;;;;;;10434388;28;20033;-80
2023/02/10 16:55:35;;;;;;;35.23;12.23;;;;;;;;;;10430015;28;20304;-80
2023/02/10 17:00:37;;;;;;;32.13;11.77;;;;;;;;;;10435042;28;20052;-80
2023/02/10 17:05:41;;;;;;;36.13;12.93;;;;;;;;;;10435476;28;20513;-79
2023/02/10 17:10:44;;;;;;;40.70;13.07;;;;;;;;;;10433674;28;20514;-79
2023/02/10 17:15:47;;;;;;;38.33;11.73;;;;;;;;;;10436686;28;20041;-81
2023/02/10 17:20:51;;;;;;;43.55;15.05;;;;;;;;;;10445055;28;20037;-79
2023/02/10 17:25:54;;;;;;;40.63;12.85;;;;;;;;;;10437332;28;20498;-79
2023/02/10 17:30:57;;;;;;;36.93;11.83;;;;;;;;;;10420993;28;20033;-80
2023/02/10 17:36:01;;;;;;;37.70;12.33;;;;;;;;;;10434875;28;20052;-79
2023/02/10 17:41:04;;;;;;;38.38;12.60;;;;;;;;;;10439666;28;20068;-79
2023/02/10 17:46:07;;;;;;;37.67;12.80;;;;;;;;;;10422154;28;20085;-80
2023/02/10 17:51:13;;;;;;;37.17;12.17;;;;;;;;;;10457457;28;20139;-79
2023/02/10 17:56:16;;;;;;;37.27;12.90;;;;;;;;;;10431177;28;20498;-80
2023/02/10 18:01:20;;;;;;;43.83;13.87;;;;;;;;;;10440392;28;20043;-80
2023/02/10 18:06:25;;;;;;;44.08;14.02;;;;;;;;;;10443425;28;20143;-80
2023/02/10 18:11:28;;;;;;;40.67;13.67;;;;;;;;;;10440905;28;20044;-79
2023/02/10 18:16:31;;;;;;;36.83;13.57;;;;;;;;;;10440437;28;20171;-79
2023/02/10 18:21:35;;;;;;;35.27;12.53;;;;;;;;;;10448866;28;20223;-79
2023/02/10 18:26:38;;;;;;;39.38;13.23;;;;;;;;;;10438169;28;20515;-79
2023/02/10 18:31:40;;;;;;;40.27;13.23;;;;;;;;;;10442433;28;20037;-79
2023/02/10 18:36:45;;;;;;;45.73;13.80;;;;;;;;;;10443998;28;20205;-79
2023/02/10 18:41:47;;;;;;;;;;;;;;;;;;10442935;28;20119;-79
2023/02/10 18:46:50;;;;;;;38.53;13.60;;;;;;;;;;10438270;28;19955;-79
2023/02/10 18:51:54;;;;;;;41.13;12.33;;;;;;;;;;10436242;28;20069;-79
2023/02/10 18:56:57;;;;;;;44.47;13.07;;;;;;;;;;10439585;28;20052;-78
2023/02/10 19:01:59;;;;;;;42.03;11.87;;;;;;;;;;10440533;28;20049;-80
2023/02/10 19:07:03;;;;;;;42.37;14.00;;;;;;;;;;10437146;28;20037;-78
2023/02/10 19:12:06;;;;;;;42.58;12.63;;;;;;;;;;10435031;28;20055;-80
2023/02/10 19:17:09;;;;;;;39.70;12.70;;;;;;;;;;10444120;28;20548;-80
2023/02/10 19:22:13;;;;;;;42.47;13.37;;;;;;;;;;10447322;28;20052;-80
2023/02/10 19:27:16;;;;;;;36.22;12.23;;;;;;;;;;10445198;28;20528;-79
2023/02/10 19:32:19;;;;;;;50.17;15.27;;;;;;;;;;10437419;28;20040;-79
2023/02/10 19:37:23;;;;;;;42.37;13.47;;;;;;;;;;10433968;28;20037;-79
2023/02/10 19:42:25;;;;;;;34.85;10.90;;;;;;;;;;10433426;28;20042;-79
2023/02/10 19:47:28;;;;;;;42.40;13.67;;;;;;;;;;10439120;28;20041;-81
2023/02/10 19:52:32;;;;;;;21.43;8.33;;;;;;;;;;10440558;28;20045;-81
2023/02/10 19:57:35;;;;;;;34.90;11.95;;;;;;;;;;10434379;28;20047;-79
2023/02/10 20:02:37;;;;;;;48.27;14.63;;;;;;;;;;10437609;28;20351;-79
2023/02/10 20:07:41;;;;;;;34.93;12.23;;;;;;;;;;10440295;28;20488;-79
2023/02/10 20:12:44;;;;;;;42.28;12.88;;;;;;;;;;10437496;28;20052;-78
2023/02/10 20:17:47;;;;;;;41.27;12.53;;;;;;;;;;10412368;28;20041;-78
2023/02/10 20:22:51;;;;;;;41.60;14.13;;;;;;;;;;10429303;28;20465;-79
2023/02/10 20:27:53;;;;;;;46.00;13.98;;;;;;;;;;10436818;28;20051;-79
2023/02/10 20:32:56;;;;;;;42.67;12.90;;;;;;;;;;10434525;28;20457;-79
2023/02/10 20:38:00;;;;;;;39.80;13.47;;;;;;;;;;10431323;28;20044;-79
2023/02/10 20:43:02;;;;;;;40.03;14.70;;;;;;;;;;10429096;28;20084;-81
2023/02/10 20:48:05;;;;;;;51.50;15.87;;;;;;;;;;10435267;28;20155;-79
2023/02/10 20:53:09;;;;;;;48.03;15.07;;;;;;;;;;10434384;28;20037;-79
2023/02/10 20:58:12;;;;;;;46.00;13.60;;;;;;;;;;10436556;28;20076;-79
2023/02/10 21:03:14;;;;;;;46.60;14.97;;;;;;;;;;10436227;28;20106;-79
2023/02/10 21:08:20;;;;;;;50.05;15.38;;;;;;;;;;10426789;28;20048;-79
2023/02/10 21:13:22;;;;;;;38.45;12.68;;;;;;;;;;10435500;28;20103;-79
2023/02/10 21:18:25;;;;;;;17.93;7.67;;;;;;;;;;10434388;28;20443;-79
2023/02/10 21:23:29;;;;;;;25.53;8.67;;;;;;;;;;10430957;28;20076;-79
2023/02/10 21:28:33;;;;;;;43.25;13.88;;;;;;;;;;10417201;28;20098;-80
2023/02/10 21:33:37;;;;;;;43.92;13.93;;;;;;;;;;10435270;28;20037;-80
2023/02/10 21:38:41;;;;;;;36.90;13.73;;;;;;;;;;10438691;28;20487;-79
2023/02/10 21:43:44;;;;;;;19.45;7.65;;;;;;;;;;10432710;28;20037;-79
2023/02/10 21:48:47;;;;;;;33.60;11.67;;;;;;;;;;10437165;28;20041;-79
2023/02/10 21:53:51;;;;;;;4.87;3.07;;;;;;;;;;10432352;28;20060;-79
2023/02/10 21:58:53;;;;;;;42.00;16.35;;;;;;;;;;10442097;28;20049;-79
2023/02/10 22:03:56;;;;;;;7.90;2.87;;;;;;;;;;10434535;28;20563;-79
2023/02/10 22:09:01;;;;;;;17.20;6.07;;;;;;;;;;10438672;28;20817;-79
2023/02/10 22:14:03;;;;;;;35.93;13.63;;;;;;;;;;10433835;28;20041;-79
2023/02/10 22:19:06;;;;;;;16.00;5.87;;;;;;;;;;10425920;28;20056;-80
2023/02/10 22:24:12;;;;;;;19.83;8.23;;;;;;;;;;10439069;28;20049;-78
2023/02/10 22:29:15;;;;;;;34.47;10.90;;;;;;;;;;10437290;28;20047;-78
2023/02/10 22:34:20;;;;;;;30.33;11.53;;;;;;;;;;10427109;28;20053;-78
2023/02/10 22:39:24;;;;;;;17.43;6.03;;;;;;;;;;10439215;28;20372;-79
2023/02/10 22:44:30;;;;;;;25.77;7.65;;;;;;;;;;10414020;28;20071;-79
2023/02/10 22:49:32;;;;;;;15.67;6.17;;;;;;;;;;10424843;28;20041;-79
2023/02/10 22:54:39;;;;;;;18.23;8.20;;;;;;;;;;10417795;28;20052;-80
2023/02/10 22:59:43;;;;;;;27.10;9.73;;;;;;;;;;10439454;28;20033;-80
2023/02/10 23:04:46;;;;;;;31.90;9.70;;;;;;;;;;10442829;28;20091;-79
2023/02/10 23:09:51;;;;;;;16.33;7.23;;;;;;;;;;10440469;28;20047;-80
2023/02/10 23:14:54;;;;;;;7.57;3.70;;;;;;;;;;10441542;28;20048;-79
2023/02/10 23:19:56;;;;;;;14.63;6.50;;;;;;;;;;10448379;28;20053;-79
2023/02/10 23:25:00;;;;;;;34.53;11.37;;;;;;;;;;10435639;28;20379;-79
2023/02/10 23:30:03;;;;;;;15.50;5.32;;;;;;;;;;10433851;28;20049;-79
2023/02/10 23:35:06;;;;;;;11.63;3.37;;;;;;;;;;10440522;28;20451;-79
2023/02/10 23:40:11;;;;;;;22.83;8.87;;;;;;;;;;10441737;28;20045;-78
2023/02/10 23:45:14;;;;;;;29.70;11.27;;;;;;;;;;10437819;28;20080;-79
2023/02/10 23:50:17;;;;;;;27.50;9.37;;;;;;;;;;10425030;28;20569;-79
2023/02/10 23:55:21;;;;;;;27.80;9.93;;;;;;;;;;10426426;28;20666;-79
